Terminal Aerodrome Forecast
Issued by NWS

Home | Current Version | Previous Version | Text Only | Print | Product List | Glossary On
Versions: 1 2 3 4 5 6 7 8 9 10 11 12 13 14 15 16 17 18 19 20 21
000
FTUS41 KCAR 292325 AAA
TAFHUL
TAF AMD
KHUL 292325Z 2923/3024 14008KT P6SM -DZ OVC025
     FM300200 17009KT 6SM -DZ OVC015
     FM300400 18009KT 4SM -DZ BR OVC008
     FM300700 18008KT 2SM -SHRADZ BR OVC005
     FM301300 20007KT 5SM -SHRA BR OVC008
     FM301600 20008KT P6SM OVC015
     FM301800 20008KT P6SM BKN025
     FM302000 20009KT P6SM BKN035=

USA.gov is the U.S. government's official web portal to all federal, state and local government web resources and services.